sensor_id;sensor_type;location;lat;lon;timestamp;P1;durP1;ratioP1;P2;durP2;ratioP2
9834;SDS011;4956;50.996;13.716;2023-03-20T00:00:03;5.97;;;3.50;;
9834;SDS011;4956;50.996;13.716;2023-03-20T00:03:28;6.20;;;3.20;;
9834;SDS011;4956;50.996;13.716;2023-03-20T00:06:48;5.50;;;3.40;;
9834;SDS011;4956;50.996;13.716;2023-03-20T00:10:08;4.03;;;3.05;;
9834;SDS011;4956;50.996;13.716;2023-03-20T00:13:29;4.60;;;3.58;;
9834;SDS011;4956;50.996;13.716;2023-03-20T00:16:50;3.85;;;3.10;;
9834;SDS011;4956;50.996;13.716;2023-03-20T00:20:14;4.57;;;3.30;;
9834;SDS011;4956;50.996;13.716;2023-03-20T00:23:35;4.28;;;3.58;;
9834;SDS011;4956;50.996;13.716;2023-03-20T00:26:55;4.97;;;3.10;;
9834;SDS011;4956;50.996;13.716;2023-03-20T00:30:20;4.65;;;3.15;;
9834;SDS011;4956;50.996;13.716;2023-03-20T00:33:46;4.75;;;3.10;;
9834;SDS011;4956;50.996;13.716;2023-03-20T00:37:07;3.55;;;2.90;;
9834;SDS011;4956;50.996;13.716;2023-03-20T00:40:29;4.10;;;3.10;;
9834;SDS011;4956;50.996;13.716;2023-03-20T00:43:51;4.43;;;3.00;;
9834;SDS011;4956;50.996;13.716;2023-03-20T00:47:18;3.60;;;3.00;;
9834;SDS011;4956;50.996;13.716;2023-03-20T00:50:39;4.20;;;3.30;;
9834;SDS011;4956;50.996;13.716;2023-03-20T00:54:00;4.30;;;3.03;;
9834;SDS011;4956;50.996;13.716;2023-03-20T00:57:25;5.00;;;3.05;;
9834;SDS011;4956;50.996;13.716;2023-03-20T01:00:47;5.03;;;3.38;;
9834;SDS011;4956;50.996;13.716;2023-03-20T01:04:10;5.03;;;3.17;;
9834;SDS011;4956;50.996;13.716;2023-03-20T01:07:36;7.05;;;3.35;;
9834;SDS011;4956;50.996;13.716;2023-03-20T01:10:56;3.55;;;2.75;;
9834;SDS011;4956;50.996;13.716;2023-03-20T01:14:17;4.07;;;2.97;;
9834;SDS011;4956;50.996;13.716;2023-03-20T01:17:37;3.35;;;2.80;;
9834;SDS011;4956;50.996;13.716;2023-03-20T01:20:57;4.17;;;2.60;;
9834;SDS011;4956;50.996;13.716;2023-03-20T01:24:18;3.80;;;3.07;;
9834;SDS011;4956;50.996;13.716;2023-03-20T01:27:38;4.30;;;2.83;;
9834;SDS011;4956;50.996;13.716;2023-03-20T01:30:59;5.25;;;3.10;;
9834;SDS011;4956;50.996;13.716;2023-03-20T01:34:20;4.85;;;2.90;;
9834;SDS011;4956;50.996;13.716;2023-03-20T01:37:40;3.55;;;2.80;;
9834;SDS011;4956;50.996;13.716;2023-03-20T01:41:13;3.40;;;2.78;;
9834;SDS011;4956;50.996;13.716;2023-03-20T01:44:36;4.88;;;2.65;;
9834;SDS011;4956;50.996;13.716;2023-03-20T01:47:58;5.20;;;2.67;;
9834;SDS011;4956;50.996;13.716;2023-03-20T01:51:19;3.85;;;2.72;;
9834;SDS011;4956;50.996;13.716;2023-03-20T01:54:42;4.72;;;2.60;;
9834;SDS011;4956;50.996;13.716;2023-03-20T01:58:07;3.03;;;2.60;;
9834;SDS011;4956;50.996;13.716;2023-03-20T02:01:31;3.53;;;2.58;;
9834;SDS011;4956;50.996;13.716;2023-03-20T02:04:53;4.35;;;2.70;;
9834;SDS011;4956;50.996;13.716;2023-03-20T02:08:17;3.42;;;2.90;;
9834;SDS011;4956;50.996;13.716;2023-03-20T02:11:40;3.53;;;2.40;;
9834;SDS011;4956;50.996;13.716;2023-03-20T02:15:02;4.32;;;2.53;;
9834;SDS011;4956;50.996;13.716;2023-03-20T02:18:40;5.20;;;2.85;;
9834;SDS011;4956;50.996;13.716;2023-03-20T02:29:41;3.60;;;2.80;;
9834;SDS011;4956;50.996;13.716;2023-03-20T02:48:52;3.85;;;2.65;;
9834;SDS011;4956;50.996;13.716;2023-03-20T02:55:44;3.83;;;2.65;;
9834;SDS011;4956;50.996;13.716;2023-03-20T03:02:56;5.32;;;2.92;;
9834;SDS011;4956;50.996;13.716;2023-03-20T03:06:28;3.92;;;3.00;;
9834;SDS011;4956;50.996;13.716;2023-03-20T03:10:10;3.90;;;2.78;;
9834;SDS011;4956;50.996;13.716;2023-03-20T03:13:32;3.03;;;2.72;;
9834;SDS011;4956;50.996;13.716;2023-03-20T03:16:56;4.07;;;2.80;;
9834;SDS011;4956;50.996;13.716;2023-03-20T03:20:30;3.58;;;2.80;;
9834;SDS011;4956;50.996;13.716;2023-03-20T03:23:53;3.30;;;3.00;;
9834;SDS011;4956;50.996;13.716;2023-03-20T03:31:30;3.63;;;2.85;;
9834;SDS011;4956;50.996;13.716;2023-03-20T03:34:51;3.65;;;2.85;;
9834;SDS011;4956;50.996;13.716;2023-03-20T03:38:32;4.07;;;2.80;;
9834;SDS011;4956;50.996;13.716;2023-03-20T03:45:45;3.50;;;2.70;;
9834;SDS011;4956;50.996;13.716;2023-03-20T03:49:16;3.22;;;2.67;;
9834;SDS011;4956;50.996;13.716;2023-03-20T03:52:40;3.75;;;2.72;;
9834;SDS011;4956;50.996;13.716;2023-03-20T03:56:03;4.72;;;2.80;;
9834;SDS011;4956;50.996;13.716;2023-03-20T03:59:29;2.92;;;2.63;;
9834;SDS011;4956;50.996;13.716;2023-03-20T04:02:53;3.90;;;2.67;;
9834;SDS011;4956;50.996;13.716;2023-03-20T04:06:15;3.28;;;2.60;;
9834;SDS011;4956;50.996;13.716;2023-03-20T04:09:36;3.30;;;2.50;;
9834;SDS011;4956;50.996;13.716;2023-03-20T04:12:56;2.80;;;2.50;;
9834;SDS011;4956;50.996;13.716;2023-03-20T04:16:17;4.20;;;3.00;;
9834;SDS011;4956;50.996;13.716;2023-03-20T04:19:39;3.22;;;2.80;;
9834;SDS011;4956;50.996;13.716;2023-03-20T04:22:59;3.67;;;2.65;;
9834;SDS011;4956;50.996;13.716;2023-03-20T04:26:21;3.75;;;2.70;;
9834;SDS011;4956;50.996;13.716;2023-03-20T04:29:41;3.50;;;3.03;;
9834;SDS011;4956;50.996;13.716;2023-03-20T04:33:26;4.28;;;2.88;;
9834;SDS011;4956;50.996;13.716;2023-03-20T04:36:54;2.60;;;2.40;;
9834;SDS011;4956;50.996;13.716;2023-03-20T04:40:19;3.67;;;2.60;;
9834;SDS011;4956;50.996;13.716;2023-03-20T04:43:40;3.20;;;2.40;;
9834;SDS011;4956;50.996;13.716;2023-03-20T04:47:01;3.95;;;2.40;;
9834;SDS011;4956;50.996;13.716;2023-03-20T04:50:22;2.45;;;2.25;;
9834;SDS011;4956;50.996;13.716;2023-03-20T04:53:45;3.25;;;2.10;;
9834;SDS011;4956;50.996;13.716;2023-03-20T04:57:06;2.50;;;2.22;;
9834;SDS011;4956;50.996;13.716;2023-03-20T05:00:27;3.72;;;2.50;;
9834;SDS011;4956;50.996;13.716;2023-03-20T05:03:48;4.35;;;2.28;;
9834;SDS011;4956;50.996;13.716;2023-03-20T05:07:08;3.50;;;2.40;;
9834;SDS011;4956;50.996;13.716;2023-03-20T05:10:37;2.78;;;2.45;;
9834;SDS011;4956;50.996;13.716;2023-03-20T05:14:18;3.20;;;2.28;;
9834;SDS011;4956;50.996;13.716;2023-03-20T05:17:49;3.08;;;2.50;;
9834;SDS011;4956;50.996;13.716;2023-03-20T05:21:26;2.35;;;2.15;;
9834;SDS011;4956;50.996;13.716;2023-03-20T05:25:17;3.20;;;2.33;;
9834;SDS011;4956;50.996;13.716;2023-03-20T05:28:54;3.03;;;2.35;;
9834;SDS011;4956;50.996;13.716;2023-03-20T05:32:33;2.50;;;2.25;;
9834;SDS011;4956;50.996;13.716;2023-03-20T05:36:03;2.55;;;2.20;;
9834;SDS011;4956;50.996;13.716;2023-03-20T05:39:44;2.75;;;2.08;;
9834;SDS011;4956;50.996;13.716;2023-03-20T05:43:23;4.05;;;2.22;;
9834;SDS011;4956;50.996;13.716;2023-03-20T05:47:02;3.60;;;2.42;;
9834;SDS011;4956;50.996;13.716;2023-03-20T05:50:52;3.28;;;2.50;;
9834;SDS011;4956;50.996;13.716;2023-03-20T05:54:31;3.90;;;2.65;;
9834;SDS011;4956;50.996;13.716;2023-03-20T05:57:58;4.93;;;2.42;;
9834;SDS011;4956;50.996;13.716;2023-03-20T06:01:42;2.60;;;2.20;;
9834;SDS011;4956;50.996;13.716;2023-03-20T06:05:15;2.47;;;2.28;;
9834;SDS011;4956;50.996;13.716;2023-03-20T06:08:41;3.55;;;2.90;;
9834;SDS011;4956;50.996;13.716;2023-03-20T06:12:01;2.60;;;2.22;;
9834;SDS011;4956;50.996;13.716;2023-03-20T06:15:22;3.05;;;2.45;;
9834;SDS011;4956;50.996;13.716;2023-03-20T06:18:51;2.63;;;2.20;;
9834;SDS011;4956;50.996;13.716;2023-03-20T06:22:11;2.90;;;2.60;;
9834;SDS011;4956;50.996;13.716;2023-03-20T06:25:31;3.10;;;2.63;;
9834;SDS011;4956;50.996;13.716;2023-03-20T06:28:52;2.92;;;2.50;;
9834;SDS011;4956;50.996;13.716;2023-03-20T06:32:13;4.40;;;3.03;;
9834;SDS011;4956;50.996;13.716;2023-03-20T06:35:34;3.60;;;2.42;;
9834;SDS011;4956;50.996;13.716;2023-03-20T06:38:55;3.92;;;2.97;;
9834;SDS011;4956;50.996;13.716;2023-03-20T06:42:17;4.18;;;2.90;;
9834;SDS011;4956;50.996;13.716;2023-03-20T06:45:39;2.80;;;2.55;;
9834;SDS011;4956;50.996;13.716;2023-03-20T06:49:09;4.57;;;2.78;;
9834;SDS011;4956;50.996;13.716;2023-03-20T06:52:30;3.42;;;3.00;;
9834;SDS011;4956;50.996;13.716;2023-03-20T06:56:16;3.42;;;2.95;;
9834;SDS011;4956;50.996;13.716;2023-03-20T06:59:36;4.68;;;3.15;;
9834;SDS011;4956;50.996;13.716;2023-03-20T07:02:57;4.07;;;3.45;;
9834;SDS011;4956;50.996;13.716;2023-03-20T07:06:18;4.93;;;3.10;;
9834;SDS011;4956;50.996;13.716;2023-03-20T07:09:38;4.38;;;2.90;;
9834;SDS011;4956;50.996;13.716;2023-03-20T07:12:59;3.72;;;3.00;;
9834;SDS011;4956;50.996;13.716;2023-03-20T07:16:20;3.72;;;2.90;;
9834;SDS011;4956;50.996;13.716;2023-03-20T07:19:41;4.28;;;3.50;;
9834;SDS011;4956;50.996;13.716;2023-03-20T07:23:02;3.40;;;3.00;;
9834;SDS011;4956;50.996;13.716;2023-03-20T07:26:26;4.82;;;2.97;;
9834;SDS011;4956;50.996;13.716;2023-03-20T07:29:46;3.40;;;3.10;;
9834;SDS011;4956;50.996;13.716;2023-03-20T07:33:10;3.20;;;2.90;;
9834;SDS011;4956;50.996;13.716;2023-03-20T07:36:32;3.78;;;3.20;;
9834;SDS011;4956;50.996;13.716;2023-03-20T07:39:52;4.95;;;3.30;;
9834;SDS011;4956;50.996;13.716;2023-03-20T07:43:22;4.20;;;2.95;;
9834;SDS011;4956;50.996;13.716;2023-03-20T07:47:10;4.05;;;3.28;;
9834;SDS011;4956;50.996;13.716;2023-03-20T07:50:31;4.75;;;3.47;;
9834;SDS011;4956;50.996;13.716;2023-03-20T07:53:51;4.70;;;3.40;;
9834;SDS011;4956;50.996;13.716;2023-03-20T07:57:11;4.53;;;3.60;;
9834;SDS011;4956;50.996;13.716;2023-03-20T08:00:32;4.97;;;3.80;;
9834;SDS011;4956;50.996;13.716;2023-03-20T08:03:52;3.93;;;3.43;;
9834;SDS011;4956;50.996;13.716;2023-03-20T08:07:12;7.32;;;4.10;;
9834;SDS011;4956;50.996;13.716;2023-03-20T08:10:33;4.82;;;4.07;;
9834;SDS011;4956;50.996;13.716;2023-03-20T08:13:53;4.53;;;3.72;;
9834;SDS011;4956;50.996;13.716;2023-03-20T08:17:13;6.20;;;4.00;;
9834;SDS011;4956;50.996;13.716;2023-03-20T08:20:34;5.22;;;4.00;;
9834;SDS011;4956;50.996;13.716;2023-03-20T08:23:54;6.88;;;4.40;;
9834;SDS011;4956;50.996;13.716;2023-03-20T08:27:15;4.22;;;3.83;;
9834;SDS011;4956;50.996;13.716;2023-03-20T08:30:36;4.75;;;4.13;;
9834;SDS011;4956;50.996;13.716;2023-03-20T08:33:56;7.67;;;4.43;;
9834;SDS011;4956;50.996;13.716;2023-03-20T08:37:16;6.32;;;4.43;;
9834;SDS011;4956;50.996;13.716;2023-03-20T08:40:39;9.13;;;4.83;;
9834;SDS011;4956;50.996;13.716;2023-03-20T08:43:59;7.13;;;4.68;;
9834;SDS011;4956;50.996;13.716;2023-03-20T08:47:20;7.53;;;5.13;;
9834;SDS011;4956;50.996;13.716;2023-03-20T08:50:43;6.78;;;5.15;;
9834;SDS011;4956;50.996;13.716;2023-03-20T08:54:03;6.00;;;4.40;;
9834;SDS011;4956;50.996;13.716;2023-03-20T08:57:25;8.85;;;5.93;;
9834;SDS011;4956;50.996;13.716;2023-03-20T09:00:45;8.23;;;6.18;;
9834;SDS011;4956;50.996;13.716;2023-03-20T09:04:05;7.07;;;5.65;;
9834;SDS011;4956;50.996;13.716;2023-03-20T09:07:26;8.03;;;6.40;;
9834;SDS011;4956;50.996;13.716;2023-03-20T09:10:46;6.70;;;5.65;;
9834;SDS011;4956;50.996;13.716;2023-03-20T09:14:07;8.57;;;6.35;;
9834;SDS011;4956;50.996;13.716;2023-03-20T09:17:28;13.30;;;9.20;;
9834;SDS011;4956;50.996;13.716;2023-03-20T09:20:50;13.38;;;9.60;;
9834;SDS011;4956;50.996;13.716;2023-03-20T09:24:10;13.50;;;9.45;;
9834;SDS011;4956;50.996;13.716;2023-03-20T09:27:31;17.95;;;11.57;;
9834;SDS011;4956;50.996;13.716;2023-03-20T09:30:55;20.43;;;13.50;;
9834;SDS011;4956;50.996;13.716;2023-03-20T09:34:16;22.38;;;15.38;;
9834;SDS011;4956;50.996;13.716;2023-03-20T09:37:36;26.77;;;17.53;;
9834;SDS011;4956;50.996;13.716;2023-03-20T09:41:00;21.73;;;15.43;;
9834;SDS011;4956;50.996;13.716;2023-03-20T09:52:15;18.85;;;12.82;;
9834;SDS011;4956;50.996;13.716;2023-03-20T09:55:40;15.77;;;12.20;;
9834;SDS011;4956;50.996;13.716;2023-03-20T09:59:02;16.25;;;12.75;;
9834;SDS011;4956;50.996;13.716;2023-03-20T10:02:29;14.98;;;10.93;;
9834;SDS011;4956;50.996;13.716;2023-03-20T10:06:00;10.35;;;9.13;;
9834;SDS011;4956;50.996;13.716;2023-03-20T10:09:24;12.32;;;10.57;;
9834;SDS011;4956;50.996;13.716;2023-03-20T10:12:47;15.38;;;11.13;;
9834;SDS011;4956;50.996;13.716;2023-03-20T10:16:16;12.63;;;11.00;;
9834;SDS011;4956;50.996;13.716;2023-03-20T10:19:42;17.23;;;12.38;;
9834;SDS011;4956;50.996;13.716;2023-03-20T10:23:05;14.90;;;11.73;;
9834;SDS011;4956;50.996;13.716;2023-03-20T10:26:26;15.70;;;12.88;;
9834;SDS011;4956;50.996;13.716;2023-03-20T10:29:50;16.95;;;12.60;;
9834;SDS011;4956;50.996;13.716;2023-03-20T10:33:25;19.23;;;13.23;;
9834;SDS011;4956;50.996;13.716;2023-03-20T10:37:31;18.33;;;13.45;;
9834;SDS011;4956;50.996;13.716;2023-03-20T10:41:00;21.70;;;14.85;;
9834;SDS011;4956;50.996;13.716;2023-03-20T10:44:28;19.65;;;13.63;;
9834;SDS011;4956;50.996;13.716;2023-03-20T10:47:52;20.90;;;14.13;;
9834;SDS011;4956;50.996;13.716;2023-03-20T10:51:15;19.98;;;14.00;;
9834;SDS011;4956;50.996;13.716;2023-03-20T10:54:41;23.73;;;16.27;;
9834;SDS011;4956;50.996;13.716;2023-03-20T10:59:03;21.25;;;15.82;;
9834;SDS011;4956;50.996;13.716;2023-03-20T11:01:57;20.98;;;14.73;;
9834;SDS011;4956;50.996;13.716;2023-03-20T11:05:35;18.10;;;14.20;;
9834;SDS011;4956;50.996;13.716;2023-03-20T11:08:56;19.92;;;14.57;;
9834;SDS011;4956;50.996;13.716;2023-03-20T11:13:03;17.80;;;13.52;;
9834;SDS011;4956;50.996;13.716;2023-03-20T11:16:20;18.67;;;14.57;;
9834;SDS011;4956;50.996;13.716;2023-03-20T11:19:44;17.77;;;14.10;;
9834;SDS011;4956;50.996;13.716;2023-03-20T11:23:05;21.65;;;15.23;;
9834;SDS011;4956;50.996;13.716;2023-03-20T11:26:32;22.75;;;15.98;;
9834;SDS011;4956;50.996;13.716;2023-03-20T11:29:59;21.95;;;15.73;;
9834;SDS011;4956;50.996;13.716;2023-03-20T11:33:24;22.30;;;16.23;;
9834;SDS011;4956;50.996;13.716;2023-03-20T11:36:53;24.10;;;17.13;;
9834;SDS011;4956;50.996;13.716;2023-03-20T11:40:17;26.83;;;18.85;;
9834;SDS011;4956;50.996;13.716;2023-03-20T11:43:41;25.48;;;18.63;;
9834;SDS011;4956;50.996;13.716;2023-03-20T11:47:06;24.33;;;18.15;;
9834;SDS011;4956;50.996;13.716;2023-03-20T11:50:32;26.88;;;18.85;;
9834;SDS011;4956;50.996;13.716;2023-03-20T11:53:57;26.17;;;18.95;;
9834;SDS011;4956;50.996;13.716;2023-03-20T11:57:28;25.02;;;18.63;;
9834;SDS011;4956;50.996;13.716;2023-03-20T12:00:52;26.27;;;17.90;;
9834;SDS011;4956;50.996;13.716;2023-03-20T12:04:14;24.05;;;17.33;;
9834;SDS011;4956;50.996;13.716;2023-03-20T12:07:36;23.00;;;17.20;;
9834;SDS011;4956;50.996;13.716;2023-03-20T12:10:58;22.92;;;16.58;;
9834;SDS011;4956;50.996;13.716;2023-03-20T12:14:22;24.38;;;17.95;;
9834;SDS011;4956;50.996;13.716;2023-03-20T12:17:50;24.98;;;16.58;;
9834;SDS011;4956;50.996;13.716;2023-03-20T12:21:23;22.02;;;16.77;;
9834;SDS011;4956;50.996;13.716;2023-03-20T12:24:56;20.42;;;15.60;;
9834;SDS011;4956;50.996;13.716;2023-03-20T12:31:45;20.05;;;15.40;;
9834;SDS011;4956;50.996;13.716;2023-03-20T12:38:36;20.88;;;15.65;;
9834;SDS011;4956;50.996;13.716;2023-03-20T12:41:59;20.38;;;16.25;;
9834;SDS011;4956;50.996;13.716;2023-03-20T12:45:38;21.40;;;16.27;;
9834;SDS011;4956;50.996;13.716;2023-03-20T12:49:19;22.67;;;16.70;;
9834;SDS011;4956;50.996;13.716;2023-03-20T13:00:23;26.10;;;17.60;;
9834;SDS011;4956;50.996;13.716;2023-03-20T13:03:54;25.60;;;17.33;;
9834;SDS011;4956;50.996;13.716;2023-03-20T13:07:42;24.23;;;17.27;;
9834;SDS011;4956;50.996;13.716;2023-03-20T13:11:27;22.77;;;16.85;;
9834;SDS011;4956;50.996;13.716;2023-03-20T13:14:57;24.75;;;17.90;;
9834;SDS011;4956;50.996;13.716;2023-03-20T13:18:39;25.00;;;17.95;;
9834;SDS011;4956;50.996;13.716;2023-03-20T13:22:07;25.15;;;17.13;;
9834;SDS011;4956;50.996;13.716;2023-03-20T13:25:53;21.83;;;16.17;;
9834;SDS011;4956;50.996;13.716;2023-03-20T13:29:40;22.65;;;15.98;;
9834;SDS011;4956;50.996;13.716;2023-03-20T13:43:39;20.70;;;15.07;;
9834;SDS011;4956;50.996;13.716;2023-03-20T13:47:05;19.02;;;14.10;;
9834;SDS011;4956;50.996;13.716;2023-03-20T13:50:36;18.38;;;13.98;;
9834;SDS011;4956;50.996;13.716;2023-03-20T13:54:03;19.50;;;14.45;;
9834;SDS011;4956;50.996;13.716;2023-03-20T13:57:51;22.83;;;15.52;;
9834;SDS011;4956;50.996;13.716;2023-03-20T14:05:01;27.20;;;18.00;;
9834;SDS011;4956;50.996;13.716;2023-03-20T14:11:49;25.27;;;17.52;;
9834;SDS011;4956;50.996;13.716;2023-03-20T14:15:12;28.95;;;18.00;;
9834;SDS011;4956;50.996;13.716;2023-03-20T14:18:33;25.13;;;17.58;;
9834;SDS011;4956;50.996;13.716;2023-03-20T14:21:53;36.75;;;24.23;;
9834;SDS011;4956;50.996;13.716;2023-03-20T14:25:18;37.28;;;23.42;;
9834;SDS011;4956;50.996;13.716;2023-03-20T14:28:43;35.60;;;23.23;;
9834;SDS011;4956;50.996;13.716;2023-03-20T14:35:36;35.08;;;23.10;;
9834;SDS011;4956;50.996;13.716;2023-03-20T14:42:54;24.10;;;16.10;;
9834;SDS011;4956;50.996;13.716;2023-03-20T14:53:25;28.10;;;18.67;;
9834;SDS011;4956;50.996;13.716;2023-03-20T14:56:46;26.13;;;17.95;;
9834;SDS011;4956;50.996;13.716;2023-03-20T15:00:20;28.95;;;18.77;;
9834;SDS011;4956;50.996;13.716;2023-03-20T15:03:43;29.50;;;19.45;;
9834;SDS011;4956;50.996;13.716;2023-03-20T15:07:28;21.80;;;15.68;;
9834;SDS011;4956;50.996;13.716;2023-03-20T15:10:50;19.27;;;13.10;;
9834;SDS011;4956;50.996;13.716;2023-03-20T15:14:16;14.20;;;10.63;;
9834;SDS011;4956;50.996;13.716;2023-03-20T15:17:43;11.07;;;8.48;;
9834;SDS011;4956;50.996;13.716;2023-03-20T15:24:36;10.85;;;8.18;;
9834;SDS011;4956;50.996;13.716;2023-03-20T15:27:56;12.73;;;8.83;;
9834;SDS011;4956;50.996;13.716;2023-03-20T15:31:36;11.05;;;8.93;;
9834;SDS011;4956;50.996;13.716;2023-03-20T15:34:57;7.60;;;6.28;;
9834;SDS011;4956;50.996;13.716;2023-03-20T15:38:17;6.87;;;5.77;;
9834;SDS011;4956;50.996;13.716;2023-03-20T15:41:38;6.97;;;5.57;;
9834;SDS011;4956;50.996;13.716;2023-03-20T15:44:59;7.47;;;5.75;;
9834;SDS011;4956;50.996;13.716;2023-03-20T15:48:20;6.78;;;5.30;;
9834;SDS011;4956;50.996;13.716;2023-03-20T15:51:42;6.13;;;4.97;;
9834;SDS011;4956;50.996;13.716;2023-03-20T15:55:06;7.38;;;6.00;;
9834;SDS011;4956;50.996;13.716;2023-03-20T15:58:31;7.13;;;5.78;;
9834;SDS011;4956;50.996;13.716;2023-03-20T16:01:52;9.13;;;6.18;;
9834;SDS011;4956;50.996;13.716;2023-03-20T16:05:16;9.88;;;6.95;;
9834;SDS011;4956;50.996;13.716;2023-03-20T16:08:37;7.85;;;6.35;;
9834;SDS011;4956;50.996;13.716;2023-03-20T16:11:59;7.65;;;6.15;;
9834;SDS011;4956;50.996;13.716;2023-03-20T16:15:22;10.07;;;7.15;;
9834;SDS011;4956;50.996;13.716;2023-03-20T16:18:44;7.28;;;6.10;;
9834;SDS011;4956;50.996;13.716;2023-03-20T16:22:11;8.95;;;6.35;;
9834;SDS011;4956;50.996;13.716;2023-03-20T16:25:40;8.75;;;6.57;;
9834;SDS011;4956;50.996;13.716;2023-03-20T16:29:00;9.20;;;7.35;;
9834;SDS011;4956;50.996;13.716;2023-03-20T16:35:56;9.60;;;6.90;;
9834;SDS011;4956;50.996;13.716;2023-03-20T16:42:40;8.75;;;6.57;;
9834;SDS011;4956;50.996;13.716;2023-03-20T16:46:02;9.18;;;7.22;;
9834;SDS011;4956;50.996;13.716;2023-03-20T16:52:57;9.05;;;6.70;;
9834;SDS011;4956;50.996;13.716;2023-03-20T16:56:25;8.35;;;6.50;;
9834;SDS011;4956;50.996;13.716;2023-03-20T16:59:47;8.95;;;6.45;;
9834;SDS011;4956;50.996;13.716;2023-03-20T17:06:36;8.00;;;6.05;;
9834;SDS011;4956;50.996;13.716;2023-03-20T17:13:42;8.60;;;6.75;;
9834;SDS011;4956;50.996;13.716;2023-03-20T17:17:02;10.13;;;7.72;;
9834;SDS011;4956;50.996;13.716;2023-03-20T17:20:24;11.27;;;8.05;;
9834;SDS011;4956;50.996;13.716;2023-03-20T17:23:45;10.02;;;7.50;;
9834;SDS011;4956;50.996;13.716;2023-03-20T17:27:07;9.73;;;7.40;;
9834;SDS011;4956;50.996;13.716;2023-03-20T17:30:30;12.68;;;8.80;;
9834;SDS011;4956;50.996;13.716;2023-03-20T17:33:51;14.65;;;8.65;;
9834;SDS011;4956;50.996;13.716;2023-03-20T17:37:12;10.68;;;7.13;;
9834;SDS011;4956;50.996;13.716;2023-03-20T17:40:34;8.82;;;6.72;;
9834;SDS011;4956;50.996;13.716;2023-03-20T17:43:54;10.00;;;6.60;;
9834;SDS011;4956;50.996;13.716;2023-03-20T17:47:19;7.93;;;6.20;;
9834;SDS011;4956;50.996;13.716;2023-03-20T17:50:42;8.07;;;6.15;;
9834;SDS011;4956;50.996;13.716;2023-03-20T17:54:06;7.85;;;6.15;;
9834;SDS011;4956;50.996;13.716;2023-03-20T17:57:32;9.27;;;7.05;;
9834;SDS011;4956;50.996;13.716;2023-03-20T18:00:54;8.55;;;6.07;;
9834;SDS011;4956;50.996;13.716;2023-03-20T18:04:15;8.40;;;6.25;;
9834;SDS011;4956;50.996;13.716;2023-03-20T18:07:35;7.18;;;5.53;;
9834;SDS011;4956;50.996;13.716;2023-03-20T18:10:56;8.23;;;5.97;;
9834;SDS011;4956;50.996;13.716;2023-03-20T18:14:16;8.38;;;5.80;;
9834;SDS011;4956;50.996;13.716;2023-03-20T18:17:38;8.18;;;6.18;;
9834;SDS011;4956;50.996;13.716;2023-03-20T18:20:58;8.30;;;6.25;;
9834;SDS011;4956;50.996;13.716;2023-03-20T18:24:19;7.50;;;6.05;;
9834;SDS011;4956;50.996;13.716;2023-03-20T18:27:40;7.82;;;6.70;;
9834;SDS011;4956;50.996;13.716;2023-03-20T18:31:01;8.52;;;6.90;;
9834;SDS011;4956;50.996;13.716;2023-03-20T18:34:21;8.80;;;6.63;;
9834;SDS011;4956;50.996;13.716;2023-03-20T18:37:42;9.48;;;7.22;;
9834;SDS011;4956;50.996;13.716;2023-03-20T18:41:02;9.50;;;6.97;;
9834;SDS011;4956;50.996;13.716;2023-03-20T18:44:23;9.93;;;7.53;;
9834;SDS011;4956;50.996;13.716;2023-03-20T18:47:43;9.60;;;7.20;;
9834;SDS011;4956;50.996;13.716;2023-03-20T18:51:04;10.77;;;7.93;;
9834;SDS011;4956;50.996;13.716;2023-03-20T18:54:25;10.75;;;7.60;;
9834;SDS011;4956;50.996;13.716;2023-03-20T18:57:45;10.40;;;7.90;;
9834;SDS011;4956;50.996;13.716;2023-03-20T19:01:06;10.88;;;8.35;;
9834;SDS011;4956;50.996;13.716;2023-03-20T19:04:26;11.13;;;7.83;;
9834;SDS011;4956;50.996;13.716;2023-03-20T19:07:47;10.73;;;8.55;;
9834;SDS011;4956;50.996;13.716;2023-03-20T19:11:08;11.45;;;8.32;;
9834;SDS011;4956;50.996;13.716;2023-03-20T19:14:34;10.32;;;7.72;;
9834;SDS011;4956;50.996;13.716;2023-03-20T19:17:54;12.13;;;8.60;;
9834;SDS011;4956;50.996;13.716;2023-03-20T19:21:15;11.02;;;8.48;;
9834;SDS011;4956;50.996;13.716;2023-03-20T19:24:36;13.18;;;9.20;;
9834;SDS011;4956;50.996;13.716;2023-03-20T19:27:56;12.80;;;9.70;;
9834;SDS011;4956;50.996;13.716;2023-03-20T19:31:17;11.90;;;8.88;;
9834;SDS011;4956;50.996;13.716;2023-03-20T19:34:37;12.95;;;9.18;;
9834;SDS011;4956;50.996;13.716;2023-03-20T19:37:57;12.63;;;9.45;;
9834;SDS011;4956;50.996;13.716;2023-03-20T19:41:18;13.82;;;9.93;;
9834;SDS011;4956;50.996;13.716;2023-03-20T19:44:38;13.32;;;9.77;;
9834;SDS011;4956;50.996;13.716;2023-03-20T19:47:59;13.45;;;9.90;;
9834;SDS011;4956;50.996;13.716;2023-03-20T19:51:23;12.55;;;9.65;;
9834;SDS011;4956;50.996;13.716;2023-03-20T19:54:48;14.30;;;10.57;;
9834;SDS011;4956;50.996;13.716;2023-03-20T19:58:08;13.93;;;10.15;;
9834;SDS011;4956;50.996;13.716;2023-03-20T20:01:29;14.70;;;10.75;;
9834;SDS011;4956;50.996;13.716;2023-03-20T20:04:49;13.98;;;10.52;;
9834;SDS011;4956;50.996;13.716;2023-03-20T20:08:10;14.15;;;10.32;;
9834;SDS011;4956;50.996;13.716;2023-03-20T20:11:30;15.73;;;10.97;;
9834;SDS011;4956;50.996;13.716;2023-03-20T20:14:50;14.50;;;10.65;;
9834;SDS011;4956;50.996;13.716;2023-03-20T20:18:11;16.17;;;11.33;;
9834;SDS011;4956;50.996;13.716;2023-03-20T20:21:32;16.50;;;12.52;;
9834;SDS011;4956;50.996;13.716;2023-03-20T20:24:53;15.77;;;11.50;;
9834;SDS011;4956;50.996;13.716;2023-03-20T20:28:14;15.13;;;11.20;;
9834;SDS011;4956;50.996;13.716;2023-03-20T20:31:36;16.70;;;11.80;;
9834;SDS011;4956;50.996;13.716;2023-03-20T20:34:56;16.65;;;11.85;;
9834;SDS011;4956;50.996;13.716;2023-03-20T20:38:17;16.75;;;12.07;;
9834;SDS011;4956;50.996;13.716;2023-03-20T20:41:39;18.25;;;12.82;;
9834;SDS011;4956;50.996;13.716;2023-03-20T20:45:01;15.35;;;11.85;;
9834;SDS011;4956;50.996;13.716;2023-03-20T20:48:22;18.25;;;12.60;;
9834;SDS011;4956;50.996;13.716;2023-03-20T20:51:43;16.13;;;12.18;;
9834;SDS011;4956;50.996;13.716;2023-03-20T20:55:04;17.67;;;13.07;;
9834;SDS011;4956;50.996;13.716;2023-03-20T20:58:26;17.33;;;12.65;;
9834;SDS011;4956;50.996;13.716;2023-03-20T21:01:46;18.60;;;13.15;;
9834;SDS011;4956;50.996;13.716;2023-03-20T21:05:08;21.48;;;13.45;;
9834;SDS011;4956;50.996;13.716;2023-03-20T21:08:30;18.73;;;12.68;;
9834;SDS011;4956;50.996;13.716;2023-03-20T21:11:53;18.60;;;13.15;;
9834;SDS011;4956;50.996;13.716;2023-03-20T21:15:14;17.10;;;12.23;;
9834;SDS011;4956;50.996;13.716;2023-03-20T21:18:34;17.63;;;12.50;;
9834;SDS011;4956;50.996;13.716;2023-03-20T21:21:55;16.25;;;12.15;;
9834;SDS011;4956;50.996;13.716;2023-03-20T21:25:15;16.80;;;12.55;;
9834;SDS011;4956;50.996;13.716;2023-03-20T21:28:36;17.48;;;12.02;;
9834;SDS011;4956;50.996;13.716;2023-03-20T21:31:56;16.08;;;11.80;;
9834;SDS011;4956;50.996;13.716;2023-03-20T21:35:16;15.95;;;12.00;;
9834;SDS011;4956;50.996;13.716;2023-03-20T21:38:37;17.40;;;12.75;;
9834;SDS011;4956;50.996;13.716;2023-03-20T21:41:59;15.52;;;12.02;;
9834;SDS011;4956;50.996;13.716;2023-03-20T21:45:19;16.92;;;12.20;;
9834;SDS011;4956;50.996;13.716;2023-03-20T21:48:39;16.85;;;12.18;;
9834;SDS011;4956;50.996;13.716;2023-03-20T21:52:00;17.05;;;11.90;;
9834;SDS011;4956;50.996;13.716;2023-03-20T21:55:21;15.38;;;11.50;;
9834;SDS011;4956;50.996;13.716;2023-03-20T21:58:41;16.33;;;11.80;;
9834;SDS011;4956;50.996;13.716;2023-03-20T22:02:01;15.30;;;11.15;;
9834;SDS011;4956;50.996;13.716;2023-03-20T22:05:22;16.23;;;11.33;;
9834;SDS011;4956;50.996;13.716;2023-03-20T22:08:43;14.65;;;10.90;;
9834;SDS011;4956;50.996;13.716;2023-03-20T22:12:03;14.43;;;10.55;;
9834;SDS011;4956;50.996;13.716;2023-03-20T22:15:24;15.48;;;11.40;;
9834;SDS011;4956;50.996;13.716;2023-03-20T22:18:45;15.93;;;11.40;;
9834;SDS011;4956;50.996;13.716;2023-03-20T22:22:05;16.10;;;11.50;;
9834;SDS011;4956;50.996;13.716;2023-03-20T22:25:26;14.70;;;10.57;;
9834;SDS011;4956;50.996;13.716;2023-03-20T22:28:46;14.60;;;10.18;;